Time;durP1;ratioP1;P1;durP2;ratioP2;P2;SDS_P1;SDS_P2;PMS_P1;PMS_P2;Temp;Humidity;BMP_temperature;BMP_pressure;BME280_temperature;BME280_humidity;BME280_pressure;Samples;Min_cycle;Max_cycle;Signal;HPM_P1;HPM_P2
2023/08/16 00:01:22;;;;;;;1999.90;999.90;;;21.50;99.90;;;;;;5054284;28;20164;-71
2023/08/16 00:03:48;;;;;;;1999.90;999.90;;;21.50;99.90;;;;;;5053915;28;20212;-71
2023/08/16 00:06:14;;;;;;;1999.90;999.90;;;21.50;99.90;;;;;;5054408;28;20171;-71
2023/08/16 00:08:40;;;;;;;1999.90;999.90;;;21.50;99.90;;;;;;5054470;28;20170;-72
2023/08/16 00:11:07;;;;;;;1999.90;999.90;;;21.50;99.90;;;;;;5054113;28;20463;-72
2023/08/16 00:13:33;;;;;;;1999.90;999.90;;;21.40;99.90;;;;;;5054364;28;20524;-72
2023/08/16 00:16:00;;;;;;;1999.90;999.90;;;21.40;99.90;;;;;;5054318;28;20745;-71
2023/08/16 00:18:26;;;;;;;1999.90;999.90;;;21.40;99.90;;;;;;5069713;28;20463;-71
2023/08/16 00:20:51;;;;;;;1999.90;999.90;;;21.30;99.90;;;;;;5054279;28;20890;-71
2023/08/16 00:23:17;;;;;;;1999.90;999.90;;;21.20;99.90;;;;;;5054031;28;20202;-71
2023/08/16 00:25:43;;;;;;;1999.90;999.90;;;21.20;99.90;;;;;;5054477;28;20259;-71
2023/08/16 00:28:08;;;;;;;1999.90;999.90;;;21.10;99.90;;;;;;5054065;28;20405;-72
2023/08/16 00:30:34;;;;;;;1999.90;999.90;;;21.10;99.90;;;;;;5054043;28;20178;-71
2023/08/16 00:32:59;;;;;;;1999.90;999.90;;;21.00;99.90;;;;;;5053727;28;20174;-71
2023/08/16 00:35:25;;;;;;;1999.90;999.90;;;20.90;99.90;;;;;;5053808;28;20195;-71
2023/08/16 00:37:52;;;;;;;1999.90;999.90;;;20.90;99.90;;;;;;5054028;28;20168;-72
2023/08/16 00:40:17;;;;;;;1999.90;999.90;;;20.90;99.90;;;;;;5053974;28;20174;-71
2023/08/16 00:42:43;;;;;;;1999.90;999.90;;;20.90;99.90;;;;;;5053462;28;20445;-71
2023/08/16 00:45:09;;;;;;;1999.90;999.90;;;20.80;99.90;;;;;;5053597;28;20233;-71
2023/08/16 00:47:35;;;;;;;1999.90;999.90;;;20.70;99.90;;;;;;5053716;28;20166;-72
2023/08/16 00:50:01;;;;;;;1999.90;999.90;;;20.70;99.90;;;;;;5053812;28;20398;-71
2023/08/16 00:52:28;;;;;;;1999.90;999.90;;;20.70;99.90;;;;;;5053298;28;20500;-72
2023/08/16 00:54:55;;;;;;;1999.90;999.90;;;20.60;99.90;;;;;;5053615;28;20428;-71
2023/08/16 00:57:21;;;;;;;1999.90;999.90;;;20.50;99.90;;;;;;5053593;28;20414;-71
2023/08/16 00:59:46;;;;;;;1999.90;999.90;;;20.50;99.90;;;;;;5053382;28;20400;-71
2023/08/16 01:02:17;;;;;;;1999.90;999.90;;;20.50;99.90;;;;;;5051717;28;20215;-72
2023/08/16 01:04:43;;;;;;;1999.90;999.90;;;20.60;99.90;;;;;;5053193;28;20185;-71
2023/08/16 01:07:09;;;;;;;1999.90;999.90;;;20.50;99.90;;;;;;5053494;28;20968;-71
2023/08/16 01:09:35;;;;;;;1999.90;999.90;;;20.60;99.90;;;;;;5053207;28;20494;-71
2023/08/16 01:12:04;;;;;;;1999.90;999.90;;;20.50;99.90;;;;;;5052886;28;20402;-72
2023/08/16 01:15:03;;;;;;;1999.90;999.90;;;20.50;99.90;;;;;;5052362;28;20453;-72
2023/08/16 01:17:29;;;;;;;1999.90;999.90;;;20.40;99.90;;;;;;5053120;28;20402;-71
2023/08/16 01:19:59;;;;;;;1999.90;999.90;;;20.30;99.90;;;;;;5053151;28;20414;-71
2023/08/16 01:22:54;;;;;;;1999.90;999.90;;;20.30;99.90;;;;;;5052695;28;20811;-71
2023/08/16 01:25:49;;;;;;;1999.90;999.90;;;20.30;99.90;;;;;;5052733;28;20429;-71
2023/08/16 01:28:17;;;;;;;1999.90;999.90;;;20.30;99.90;;;;;;5052950;28;20401;-71
2023/08/16 01:30:45;;;;;;;1999.90;999.90;;;20.20;99.90;;;;;;5052658;28;20452;-71
2023/08/16 01:33:12;;;;;;;1999.90;999.90;;;20.30;99.90;;;;;;5052614;28;20431;-71
2023/08/16 01:35:38;;;;;;;1999.90;999.90;;;20.30;99.90;;;;;;5052736;28;20416;-71
2023/08/16 01:38:05;;;;;;;1999.90;999.90;;;20.20;99.90;;;;;;5052946;28;20512;-70
2023/08/16 01:40:54;;;;;;;1999.90;999.90;;;20.00;99.90;;;;;;5052622;28;20419;-72
2023/08/16 01:43:21;;;;;;;1999.90;999.90;;;19.90;99.90;;;;;;5052167;28;20461;-71
2023/08/16 01:45:52;;;;;;;1999.90;999.90;;;19.90;99.90;;;;;;5052932;28;20471;-71
2023/08/16 01:48:21;;;;;;;1999.90;999.90;;;20.00;99.90;;;;;;5052721;28;20447;-71
2023/08/16 01:50:47;;;;;;;1999.90;999.90;;;20.00;99.90;;;;;;5052740;28;20403;-72
2023/08/16 01:53:13;;;;;;;1999.90;999.90;;;19.90;99.90;;;;;;5052447;28;20893;-72
2023/08/16 01:55:38;;;;;;;1999.90;999.90;;;19.90;99.90;;;;;;5052717;28;20439;-71
2023/08/16 01:58:04;;;;;;;1999.90;999.90;;;19.90;99.90;;;;;;5052755;28;20250;-71
2023/08/16 02:00:29;;;;;;;1999.90;999.90;;;20.00;99.90;;;;;;5052539;28;20179;-71
2023/08/16 02:02:55;;;;;;;1999.90;999.90;;;20.00;99.90;;;;;;5050871;28;20200;-71
2023/08/16 02:05:20;;;;;;;1999.90;999.90;;;19.90;99.90;;;;;;5052407;28;20192;-70
2023/08/16 02:07:46;;;;;;;1999.90;999.90;;;19.90;99.90;;;;;;5052446;28;20165;-71
2023/08/16 02:10:12;;;;;;;1999.90;999.90;;;19.70;99.90;;;;;;5052216;28;20257;-71
2023/08/16 02:12:37;;;;;;;1999.90;999.90;;;19.50;99.90;;;;;;5052070;28;20175;-72
2023/08/16 02:15:03;;;;;;;1999.90;999.90;;;19.40;99.90;;;;;;5052257;28;20194;-71
2023/08/16 02:17:29;;;;;;;1999.90;999.90;;;19.30;99.90;;;;;;5052709;28;20171;-71
2023/08/16 02:19:54;;;;;;;1999.90;999.90;;;19.20;99.90;;;;;;5052242;28;20413;-71
2023/08/16 02:22:20;;;;;;;1999.90;999.90;;;19.10;99.90;;;;;;5052180;28;20212;-72
2023/08/16 02:24:45;;;;;;;1999.90;999.90;;;19.10;99.90;;;;;;5052360;28;20190;-72
2023/08/16 02:27:11;;;;;;;1999.90;999.90;;;19.10;99.90;;;;;;5056977;28;20596;-71
2023/08/16 02:29:37;;;;;;;1999.90;999.90;;;19.00;99.90;;;;;;5059057;28;20599;-71
2023/08/16 02:32:03;;;;;;;1999.90;999.90;;;19.00;99.90;;;;;;5058633;28;20179;-72
2023/08/16 02:34:29;;;;;;;1999.90;999.90;;;19.00;99.90;;;;;;5058744;28;20182;-72
2023/08/16 02:36:54;;;;;;;1999.90;999.90;;;19.10;99.90;;;;;;5058920;28;20464;-72
2023/08/16 02:39:20;;;;;;;1999.90;999.90;;;19.20;99.90;;;;;;5058957;28;20170;-72
2023/08/16 02:41:46;;;;;;;1999.90;999.90;;;19.30;99.90;;;;;;5058692;28;20208;-72
2023/08/16 02:44:12;;;;;;;1999.90;999.90;;;19.40;99.90;;;;;;5058616;28;20532;-72
2023/08/16 02:46:37;;;;;;;1999.90;999.90;;;19.40;99.90;;;;;;5058547;28;20172;-71
2023/08/16 02:49:03;;;;;;;1999.90;999.90;;;19.50;99.90;;;;;;5058827;28;20170;-72
2023/08/16 02:51:28;;;;;;;1999.90;999.90;;;19.50;99.90;;;;;;5058245;28;20170;-72
2023/08/16 02:53:54;;;;;;;1999.90;999.90;;;19.50;99.90;;;;;;5058523;28;20312;-71
2023/08/16 02:56:19;;;;;;;1999.90;999.90;;;19.50;99.90;;;;;;5058720;28;20170;-72
2023/08/16 02:58:45;;;;;;;1999.90;999.90;;;19.40;99.90;;;;;;5058351;28;20232;-72
2023/08/16 03:01:11;;;;;;;1999.90;999.90;;;19.40;99.90;;;;;;5058186;28;20508;-72
2023/08/16 03:03:36;;;;;;;1999.90;999.90;;;19.40;99.90;;;;;;5058286;28;20207;-72
2023/08/16 03:06:03;;;;;;;1999.90;999.90;;;19.40;99.90;;;;;;5058437;28;20401;-71
2023/08/16 03:08:29;;;;;;;1999.90;999.90;;;19.30;99.90;;;;;;5058247;28;20165;-72
2023/08/16 03:10:54;;;;;;;1999.90;999.90;;;19.20;99.90;;;;;;5058115;28;20453;-71
2023/08/16 03:13:20;;;;;;;1999.90;999.90;;;19.20;99.90;;;;;;5058003;28;20667;-71
2023/08/16 03:15:45;;;;;;;1999.90;999.90;;;19.10;99.90;;;;;;5058239;28;20175;-71
2023/08/16 03:18:11;;;;;;;1999.90;999.90;;;19.20;99.90;;;;;;5058120;28;20164;-71
2023/08/16 03:20:37;;;;;;;1999.90;999.90;;;19.10;99.90;;;;;;5058214;28;20171;-71
2023/08/16 03:23:02;;;;;;;1999.90;999.90;;;19.10;99.90;;;;;;5057967;28;20244;-71
2023/08/16 03:25:28;;;;;;;1999.90;999.90;;;19.10;99.90;;;;;;5058204;28;20180;-74
2023/08/16 03:27:53;;;;;;;1999.90;999.90;;;19.10;99.90;;;;;;5058124;28;20165;-73
2023/08/16 03:30:19;;;;;;;1999.90;999.90;;;19.00;99.90;;;;;;5058367;28;20569;-74
2023/08/16 03:32:45;;;;;;;1999.90;999.90;;;18.90;99.90;;;;;;5056509;28;20317;-73
2023/08/16 03:35:11;;;;;;;1999.90;999.90;;;18.90;99.90;;;;;;5058276;28;20237;-73
2023/08/16 03:37:36;;;;;;;1999.90;999.90;;;18.80;99.90;;;;;;5056710;28;20172;-74
2023/08/16 03:40:02;;;;;;;1999.90;999.90;;;18.80;99.90;;;;;;5054720;28;20961;-73
2023/08/16 03:42:28;;;;;;;1999.90;999.90;;;;;;;;;;5054605;28;20327;-75
2023/08/16 03:44:53;;;;;;;1999.90;999.90;;;18.70;99.90;;;;;;5054771;28;20208;-74
2023/08/16 03:47:19;;;;;;;1999.90;999.90;;;18.70;99.90;;;;;;5054751;28;20871;-73
2023/08/16 03:49:45;;;;;;;1999.90;999.90;;;18.70;99.90;;;;;;5054863;28;20167;-74
2023/08/16 03:52:10;;;;;;;1999.90;999.90;;;18.70;99.90;;;;;;5054647;28;20574;-74
2023/08/16 03:54:36;;;;;;;1999.90;999.90;;;18.70;99.90;;;;;;5054736;28;20270;-72
2023/08/16 03:57:02;;;;;;;1999.90;999.90;;;18.70;99.90;;;;;;5053453;28;20232;-73
2023/08/16 03:59:27;;;;;;;1999.90;999.90;;;18.60;99.90;;;;;;5054956;28;20250;-73
2023/08/16 04:01:53;;;;;;;1999.90;999.90;;;18.70;99.90;;;;;;5054409;28;20604;-73
2023/08/16 04:04:18;;;;;;;1999.90;999.90;;;18.70;99.90;;;;;;5054475;28;20185;-74
2023/08/16 04:06:44;;;;;;;1999.90;999.90;;;18.70;99.90;;;;;;5054667;28;20273;-73
2023/08/16 04:09:10;;;;;;;1999.90;999.90;;;18.70;99.90;;;;;;5054563;28;20185;-73
2023/08/16 04:11:35;;;;;;;1999.90;999.90;;;18.80;99.90;;;;;;5054153;28;20242;-73
2023/08/16 04:14:01;;;;;;;1999.90;999.90;;;18.80;99.90;;;;;;5054538;28;20281;-73
2023/08/16 04:16:27;;;;;;;1999.90;999.90;;;18.80;99.90;;;;;;5054251;28;20177;-74
2023/08/16 04:18:54;;;;;;;1999.90;999.90;;;18.80;99.90;;;;;;5054332;28;20671;-74
2023/08/16 04:21:20;;;;;;;1999.90;999.90;;;18.80;99.90;;;;;;5054079;28;20251;-73
2023/08/16 04:23:45;;;;;;;1999.90;999.90;;;18.80;99.90;;;;;;5053977;28;20889;-73
2023/08/16 04:26:12;;;;;;;1999.90;999.90;;;18.70;99.90;;;;;;5053942;28;20493;-74
2023/08/16 04:28:37;;;;;;;1999.90;999.90;;;18.70;99.90;;;;;;5054289;28;20170;-74
2023/08/16 04:31:04;;;;;;;1999.90;999.90;;;18.70;99.90;;;;;;5053955;28;20411;-74
2023/08/16 04:33:30;;;;;;;1999.90;999.90;;;18.70;99.90;;;;;;5053946;28;20569;-73
2023/08/16 04:35:55;;;;;;;1999.90;999.90;;;18.70;99.90;;;;;;5053899;28;20421;-74
2023/08/16 04:38:21;;;;;;;1999.90;999.90;;;18.70;99.90;;;;;;5053916;28;20755;-74
2023/08/16 04:40:50;;;;;;;1999.90;999.90;;;18.80;99.90;;;;;;5053674;28;20174;-74
2023/08/16 04:43:16;;;;;;;1999.90;999.90;;;18.90;99.90;;;;;;5053725;28;20229;-74
2023/08/16 04:45:41;;;;;;;1999.90;999.90;;;18.90;99.90;;;;;;5052950;28;20424;-74
2023/08/16 04:48:08;;;;;;;1999.90;999.90;;;19.10;99.90;;;;;;5053624;28;20890;-71
2023/08/16 04:50:34;;;;;;;1999.90;999.90;;;19.20;99.90;;;;;;5053246;28;20546;-74
2023/08/16 04:53:00;;;;;;;1999.90;999.90;;;19.30;99.90;;;;;;5053059;28;20413;-73
2023/08/16 04:55:26;;;;;;;1999.90;999.90;;;19.40;99.90;;;;;;5053141;28;20191;-72
2023/08/16 04:57:51;;;;;;;1999.90;999.90;;;19.40;99.90;;;;;;5053137;28;20419;-73
2023/08/16 05:00:19;;;;;;;1999.90;999.90;;;19.50;99.90;;;;;;5053250;28;20172;-74
2023/08/16 05:02:44;;;;;;;1999.90;999.90;;;19.60;99.90;;;;;;5052891;28;20583;-70
2023/08/16 05:05:10;;;;;;;1999.90;999.90;;;19.50;99.90;;;;;;5053037;28;20429;-72
2023/08/16 05:07:35;;;;;;;1999.90;999.90;;;19.50;99.90;;;;;;5053246;28;20688;-73
2023/08/16 05:10:01;;;;;;;1999.90;999.90;;;19.60;99.90;;;;;;5053331;28;20631;-74
2023/08/16 05:12:27;;;;;;;1999.90;999.90;;;19.60;99.90;;;;;;5053271;28;20229;-73
2023/08/16 05:14:52;;;;;;;1999.90;999.90;;;19.60;99.90;;;;;;5053610;28;20199;-74
2023/08/16 05:17:18;;;;;;;1999.90;999.90;;;19.60;99.90;;;;;;5053339;28;20185;-74
2023/08/16 05:19:43;;;;;;;1999.90;999.90;;;19.60;99.90;;;;;;5053436;28;20246;-73
2023/08/16 05:22:09;;;;;;;1999.90;999.90;;;19.50;99.90;;;;;;5053194;28;20202;-74
2023/08/16 05:24:34;;;;;;;1999.90;999.90;;;19.40;99.90;;;;;;5052947;28;20716;-73
2023/08/16 05:27:00;;;;;;;1999.90;999.90;;;19.30;99.90;;;;;;5053122;28;20183;-73
2023/08/16 05:29:26;;;;;;;1999.90;999.90;;;19.30;99.90;;;;;;5053132;28;20169;-74
2023/08/16 05:31:51;;;;;;;1999.90;999.90;;;19.30;99.90;;;;;;5052642;28;20533;-73
2023/08/16 05:34:18;;;;;;;1999.90;999.90;;;19.40;99.90;;;;;;5052805;28;20197;-74
2023/08/16 05:36:48;;;;;;;1999.90;999.90;;;19.40;99.90;;;;;;5052923;28;20182;-73
2023/08/16 05:39:14;;;;;;;1999.90;999.90;;;19.40;99.90;;;;;;5052988;28;20410;-73
2023/08/16 05:41:40;;;;;;;1999.90;999.90;;;19.40;99.90;;;;;;5052676;28;20405;-74
2023/08/16 05:44:06;;;;;;;1999.90;999.90;;;19.40;99.90;;;;;;5052652;28;20468;-74
2023/08/16 05:46:32;;;;;;;1999.90;999.90;;;19.40;99.90;;;;;;5052840;28;20900;-73
2023/08/16 05:48:57;;;;;;;1999.90;999.90;;;19.50;99.90;;;;;;5052375;28;20265;-73
2023/08/16 05:51:23;;;;;;;1999.90;999.90;;;19.70;99.90;;;;;;5052168;28;20171;-73
2023/08/16 05:53:48;;;;;;;1999.90;999.90;;;19.80;99.90;;;;;;5052195;28;20767;-74
2023/08/16 05:56:14;;;;;;;1999.90;999.90;;;19.90;99.90;;;;;;5052302;28;20171;-74
2023/08/16 05:58:39;;;;;;;1999.90;999.90;;;20.10;99.90;;;;;;5052436;28;20176;-70
2023/08/16 06:01:05;;;;;;;1999.90;999.90;;;20.10;99.90;;;;;;5051647;28;20172;-70
2023/08/16 06:03:31;;;;;;;1999.90;999.90;;;20.10;99.90;;;;;;5052029;28;20204;-71
2023/08/16 06:05:58;;;;;;;1999.90;999.90;;;20.10;99.90;;;;;;5052175;28;20181;-71
2023/08/16 06:08:23;;;;;;;1999.90;999.90;;;20.20;99.90;;;;;;5052055;28;20807;-71
2023/08/16 06:10:49;;;;;;;1999.90;999.90;;;20.20;99.90;;;;;;5052265;28;20406;-71
2023/08/16 06:13:15;;;;;;;1999.90;999.90;;;20.10;99.90;;;;;;5051781;28;20178;-71
2023/08/16 06:15:40;;;;;;;1999.90;999.90;;;20.10;99.90;;;;;;5052017;28;20179;-71
2023/08/16 06:18:06;;;;;;;1999.90;999.90;;;20.10;99.90;;;;;;5052070;28;20176;-70
2023/08/16 06:20:31;;;;;;;1999.90;999.90;;;20.30;99.90;;;;;;5052112;28;20222;-71
2023/08/16 06:22:57;;;;;;;1999.90;999.90;;;20.40;99.90;;;;;;5051497;28;20195;-71
2023/08/16 06:25:22;;;;;;;1999.90;999.90;;;20.50;99.90;;;;;;5051951;28;20616;-71
2023/08/16 06:27:48;;;;;;;1999.90;999.90;;;20.60;99.90;;;;;;5052052;28;20242;-70
2023/08/16 06:30:14;;;;;;;1999.90;999.90;;;20.60;99.90;;;;;;5052058;28;20237;-70
2023/08/16 06:32:39;;;;;;;1999.90;999.90;;;20.70;99.90;;;;;;5052314;28;20417;-71
2023/08/16 06:35:08;;;;;;;1999.90;999.90;;;20.80;99.90;;;;;;5052046;28;20194;-71
2023/08/16 06:37:35;;;;;;;1999.90;999.90;;;20.90;99.90;;;;;;5052268;28;20214;-71
2023/08/16 06:40:04;;;;;;;1999.90;999.90;;;21.00;99.90;;;;;;5052214;28;20412;-70
2023/08/16 06:42:31;;;;;;;1999.90;999.90;;;21.00;99.90;;;;;;5051805;28;20526;-71
2023/08/16 06:44:57;;;;;;;1999.90;999.90;;;21.00;99.90;;;;;;5052070;28;20446;-70
2023/08/16 06:47:22;;;;;;;1999.90;999.90;;;21.00;99.90;;;;;;5052012;28;20411;-70
2023/08/16 06:49:48;;;;;;;1999.90;999.90;;;21.10;99.90;;;;;;5052064;28;20178;-71
2023/08/16 06:52:14;;;;;;;1999.90;999.90;;;21.10;99.90;;;;;;5051761;28;20531;-71
2023/08/16 06:54:42;;;;;;;1999.90;999.90;;;21.10;99.90;;;;;;5052069;28;20566;-71
2023/08/16 06:57:08;;;;;;;1999.90;999.90;;;21.10;99.90;;;;;;5052079;28;20184;-71
2023/08/16 06:59:35;;;;;;;1999.90;999.90;;;21.20;99.90;;;;;;5052128;28;20412;-71
2023/08/16 07:02:00;;;;;;;1999.90;999.90;;;21.20;99.90;;;;;;5051712;28;20768;-71
2023/08/16 07:04:26;;;;;;;1999.90;999.90;;;21.20;99.90;;;;;;5051870;28;20430;-71
2023/08/16 07:06:52;;;;;;;1999.90;999.90;;;21.20;99.90;;;;;;5051858;28;20272;-71
2023/08/16 07:09:17;;;;;;;1999.90;999.90;;;21.10;99.90;;;;;;5051016;28;20172;-70
2023/08/16 07:11:43;;;;;;;1999.90;999.90;;;21.10;99.90;;;;;;5051405;28;20197;-71
2023/08/16 07:14:08;;;;;;;1999.90;999.90;;;21.10;99.90;;;;;;5053599;28;20252;-71
2023/08/16 07:16:36;;;;;;;1999.90;999.90;;;21.10;99.90;;;;;;5055197;28;20541;-71
2023/08/16 07:19:04;;;;;;;1999.90;999.90;;;21.00;99.90;;;;;;5055186;28;20176;-69
2023/08/16 07:21:29;;;;;;;1999.90;999.90;;;21.00;99.90;;;;;;5055070;28;20472;-69
2023/08/16 07:23:55;;;;;;;1999.90;999.90;;;20.90;99.90;;;;;;5054959;28;20982;-71
2023/08/16 07:26:20;;;;;;;1999.90;999.90;;;20.60;99.90;;;;;;5055051;28;20172;-71
2023/08/16 07:28:46;;;;;;;1999.90;999.90;;;20.50;99.90;;;;;;5054880;28;20257;-71
2023/08/16 07:31:12;;;;;;;1999.90;999.90;;;20.40;99.90;;;;;;5054652;28;20669;-69
2023/08/16 07:33:37;;;;;;;1999.90;999.90;;;20.40;99.90;;;;;;5054863;28;20325;-71
2023/08/16 07:36:03;;;;;;;1999.90;999.90;;;20.50;99.90;;;;;;5054865;28;20849;-71
2023/08/16 07:38:32;;;;;;;1999.90;999.90;;;20.60;99.90;;;;;;5054853;28;20176;-71
2023/08/16 07:40:58;;;;;;;1999.90;999.90;;;20.60;99.90;;;;;;5054449;28;20498;-69
2023/08/16 07:43:24;;;;;;;1999.90;999.90;;;20.60;99.90;;;;;;5054730;28;20598;-71
2023/08/16 07:45:53;;;;;;;1999.90;999.90;;;20.50;99.90;;;;;;5055155;28;20796;-71
2023/08/16 07:48:19;;;;;;;1999.90;999.90;;;20.60;99.90;;;;;;5054744;28;20226;-71
2023/08/16 07:50:46;;;;;;;1999.90;999.90;;;20.70;99.90;;;;;;5050247;28;20414;-71
2023/08/16 07:53:12;;;;;;;1999.90;999.90;;;20.80;99.90;;;;;;5054178;28;20417;-71
2023/08/16 07:55:38;;;;;;;1999.90;999.90;;;20.80;99.90;;;;;;5054349;28;20423;-71
2023/08/16 07:58:03;;;;;;;1999.90;999.90;;;21.00;99.90;;;;;;5054415;28;20483;-71
2023/08/16 08:00:29;;;;;;;1999.90;999.90;;;21.20;99.90;;;;;;5054585;28;20659;-71
2023/08/16 08:02:55;;;;;;;1999.90;999.90;;;21.40;99.90;;;;;;5052569;28;20540;-71
2023/08/16 08:05:22;;;;;;;1999.90;999.90;;;21.60;99.90;;;;;;5054208;28;20205;-71
2023/08/16 08:07:48;;;;;;;1999.90;999.90;;;21.70;99.90;;;;;;5054513;28;20839;-71
2023/08/16 08:10:15;;;;;;;1999.90;999.90;;;21.80;99.90;;;;;;5054277;28;20413;-71
2023/08/16 08:12:45;;;;;;;1999.90;999.90;;;21.90;99.90;;;;;;5054203;28;20430;-71
2023/08/16 08:15:10;;;;;;;1999.90;999.90;;;22.00;99.90;;;;;;5054272;28;20429;-71
2023/08/16 08:17:36;;;;;;;1999.90;999.90;;;22.00;99.90;;;;;;5054369;28;20471;-71
2023/08/16 08:20:03;;;;;;;1999.90;999.90;;;22.00;99.90;;;;;;5054445;28;20579;-71
2023/08/16 08:22:29;;;;;;;1999.90;999.90;;;22.00;99.90;;;;;;5054131;28;20213;-70
2023/08/16 08:24:54;;;;;;;1999.90;999.90;;;22.10;99.90;;;;;;5048479;28;20433;-70
2023/08/16 08:27:20;;;;;;;1999.90;999.90;;;22.20;99.90;;;;;;5048345;28;20170;-69
2023/08/16 08:29:46;;;;;;;1999.90;999.90;;;22.20;99.90;;;;;;5048062;28;20548;-69
2023/08/16 08:32:12;;;;;;;1999.90;999.90;;;22.20;99.90;;;;;;5047942;28;20558;-70
2023/08/16 08:34:39;;;;;;;1999.90;999.90;;;22.10;99.90;;;;;;5045984;28;20210;-69
2023/08/16 08:37:04;;;;;;;1999.90;999.90;;;22.00;99.90;;;;;;5048034;28;20406;-68
2023/08/16 08:39:32;;;;;;;1999.90;999.90;;;22.00;99.90;;;;;;5049996;28;20454;-70
2023/08/16 08:41:58;;;;;;;1999.90;999.90;;;22.10;99.90;;;;;;5048771;28;20202;-69
2023/08/16 08:44:24;;;;;;;1999.90;999.90;;;22.20;99.90;;;;;;5048861;28;20419;-69
2023/08/16 08:46:50;;;;;;;1999.90;999.90;;;22.20;99.90;;;;;;5049748;28;20417;-68
2023/08/16 08:49:17;;;;;;;1999.90;999.90;;;22.00;99.90;;;;;;5049180;28;20388;-68
2023/08/16 08:51:43;;;;;;;1999.90;999.90;;;21.90;99.90;;;;;;5048949;28;20424;-68
2023/08/16 08:54:08;;;;;;;1999.90;999.90;;;21.80;99.90;;;;;;5049198;28;20865;-69
2023/08/16 08:56:36;;;;;;;1999.90;999.90;;;22.00;99.90;;;;;;5048632;28;20419;-70
2023/08/16 08:59:02;;;;;;;1999.90;999.90;;;22.30;99.90;;;;;;5052817;28;20245;-72
2023/08/16 09:01:29;;;;;;;1999.90;999.90;;;22.20;99.90;;;;;;5052871;28;20559;-71
2023/08/16 09:03:58;;;;;;;1999.90;999.90;;;22.10;99.90;;;;;;5052971;28;20465;-71
2023/08/16 09:06:24;;;;;;;1999.90;999.90;;;22.00;99.90;;;;;;5052979;28;20415;-72
2023/08/16 09:08:51;;;;;;;1999.90;999.90;;;21.80;99.90;;;;;;5053265;28;20895;-72
2023/08/16 09:11:18;;;;;;;1999.90;999.90;;;21.90;99.90;;;;;;5052815;28;20406;-70
2023/08/16 09:13:45;;;;;;;1999.90;999.90;;;21.90;99.90;;;;;;5052856;28;20437;-72
2023/08/16 09:16:10;;;;;;;1999.90;999.90;;;21.90;99.90;;;;;;5052993;28;20487;-72
2023/08/16 09:18:36;;;;;;;1999.90;999.90;;;22.00;99.90;;;;;;5053165;28;20410;-72
2023/08/16 09:21:02;;;;;;;1999.90;999.90;;;22.10;99.90;;;;;;5052712;28;20194;-72
2023/08/16 09:23:31;;;;;;;1999.90;999.90;;;22.20;99.90;;;;;;5052823;28;20287;-72
2023/08/16 09:25:57;;;;;;;1999.90;999.90;;;22.30;99.90;;;;;;5052839;28;20904;-71
2023/08/16 09:28:23;;;;;;;1999.90;999.90;;;22.40;99.90;;;;;;5052729;28;20409;-72
2023/08/16 09:30:48;;;;;;;1999.90;999.90;;;22.60;99.90;;;;;;5052598;28;20172;-72
2023/08/16 09:33:17;;;;;;;1999.90;999.90;;;22.50;99.90;;;;;;5052488;28;20183;-72
2023/08/16 09:35:48;;;;;;;1999.90;999.90;;;22.60;99.90;;;;;;5051883;28;20164;-72
2023/08/16 09:38:17;;;;;;;1999.90;999.90;;;22.50;99.90;;;;;;5052521;28;20425;-72
2023/08/16 09:40:52;;;;;;;1999.90;999.90;;;22.60;99.90;;;;;;5052474;28;20420;-70
2023/08/16 09:43:18;;;;;;;1999.90;999.90;;;22.60;99.90;;;;;;5052263;28;20983;-72
2023/08/16 09:45:49;;;;;;;1999.90;999.90;;;22.70;99.90;;;;;;5052418;28;20392;-72
2023/08/16 09:48:15;;;;;;;1999.90;999.90;;;22.70;99.90;;;;;;5052554;28;20453;-72
2023/08/16 09:50:40;;;;;;;1999.90;999.90;;;22.80;99.90;;;;;;5052340;28;20757;-72
2023/08/16 09:53:06;;;;;;;1999.90;999.90;;;22.70;99.90;;;;;;5052038;28;20186;-72
2023/08/16 09:55:33;;;;;;;1999.90;999.90;;;22.70;99.90;;;;;;5052135;28;20200;-72
2023/08/16 09:58:00;;;;;;;1999.90;999.90;;;22.50;99.90;;;;;;5052283;28;20166;-71
2023/08/16 10:00:27;;;;;;;1999.90;999.90;;;22.30;99.90;;;;;;5052197;28;20933;-72
2023/08/16 10:02:54;;;;;;;1999.90;999.90;;;22.20;99.90;;;;;;5050426;28;20467;-72
2023/08/16 10:05:20;;;;;;;1999.90;999.90;;;22.10;99.90;;;;;;5044931;28;20449;-72
2023/08/16 10:07:47;;;;;;;1999.90;999.90;;;22.00;99.90;;;;;;5049667;28;20420;-70
2023/08/16 10:10:14;;;;;;;1999.90;999.90;;;21.90;99.90;;;;;;5046188;28;20453;-72
2023/08/16 10:12:40;;;;;;;1999.90;999.90;;;21.90;99.90;;;;;;5051840;28;20893;-72
2023/08/16 10:15:06;;;;;;;1999.90;999.90;;;21.90;99.90;;;;;;5051925;28;20445;-72
2023/08/16 10:17:40;;;;;;;1999.90;999.90;;;21.90;99.90;;;;;;5045429;28;20480;-69
2023/08/16 10:20:19;;;;;;;1999.90;999.90;;;22.10;99.90;;;;;;5050381;28;20422;-72
2023/08/16 10:22:50;;;;;;;1999.90;999.90;;;21.90;99.90;;;;;;5047255;28;20891;-71
2023/08/16 10:25:23;;;;;;;1999.90;999.90;;;21.80;99.90;;;;;;5047383;28;20813;-71
2023/08/16 10:27:50;;;;;;;1999.90;999.90;;;21.60;99.90;;;;;;5047088;28;20467;-69
2023/08/16 10:30:23;;;;;;;1999.90;999.90;;;21.40;99.90;;;;;;5047836;28;20429;-71
2023/08/16 10:33:06;;;;;;;1999.90;999.90;;;21.20;99.90;;;;;;5041121;28;20418;-72
2023/08/16 10:35:33;;;;;;;1999.90;999.90;;;21.20;99.90;;;;;;5047769;28;20456;-72
2023/08/16 10:37:59;;;;;;;1999.90;999.90;;;21.20;99.90;;;;;;5047495;28;20515;-72
2023/08/16 10:40:24;;;;;;;1999.90;999.90;;;21.30;99.90;;;;;;5047715;28;20508;-70
2023/08/16 10:42:57;;;;;;;1999.90;999.90;;;21.40;99.90;;;;;;5046996;28;20194;-71
2023/08/16 10:45:24;;;;;;;1999.90;999.90;;;21.70;99.90;;;;;;5047111;28;20206;-72
2023/08/16 10:47:50;;;;;;;1999.90;999.90;;;21.80;99.90;;;;;;5048941;28;20414;-72
2023/08/16 10:50:16;;;;;;;1999.90;999.90;;;21.90;99.90;;;;;;5051969;28;20421;-71
2023/08/16 10:52:42;;;;;;;1999.90;999.90;;;22.10;99.90;;;;;;5050599;28;20175;-72
2023/08/16 10:55:08;;;;;;;1999.90;999.90;;;22.30;99.90;;;;;;5051480;28;20432;-69
2023/08/16 10:57:34;;;;;;;1999.90;999.90;;;22.50;99.90;;;;;;5051413;28;20414;-72
2023/08/16 11:00:05;;;;;;;1999.90;999.90;;;22.80;99.90;;;;;;5050836;28;20686;-71
2023/08/16 11:02:33;;;;;;;1999.90;999.90;;;23.10;99.90;;;;;;5050296;28;20499;-72
2023/08/16 11:04:59;;;;;;;1999.90;999.90;;;23.30;99.90;;;;;;5051502;28;20438;-71
2023/08/16 11:07:26;;;;;;;1999.90;999.90;;;23.40;99.90;;;;;;5050764;28;20465;-71
2023/08/16 11:09:52;;;;;;;1999.90;999.90;;;23.50;99.90;;;;;;5050855;28;20413;-71
2023/08/16 11:12:18;;;;;;;1999.90;999.90;;;23.70;99.90;;;;;;5050631;28;20409;-70
2023/08/16 11:14:46;;;;;;;1999.90;999.90;;;24.00;99.90;;;;;;5050696;28;20206;-72
2023/08/16 11:17:15;;;;;;;1999.90;999.90;;;24.20;99.90;;;;;;5050701;28;20179;-70
2023/08/16 11:19:41;;;;;;;1999.90;999.90;;;24.60;99.90;;;;;;5051456;28;20422;-72
2023/08/16 11:22:09;;;;;;;1999.90;999.90;;;25.00;99.90;;;;;;5050450;28;20833;-72
2023/08/16 11:24:35;;;;;;;1999.90;999.90;;;25.50;99.90;;;;;;5050555;28;20410;-72
2023/08/16 11:27:03;;;;;;;1999.90;999.90;;;25.90;99.90;;;;;;5051530;28;20422;-72
2023/08/16 11:29:28;;;;;;;1999.90;999.90;;;26.30;99.90;;;;;;5051049;28;20187;-71
2023/08/16 11:31:57;;;;;;;1999.90;999.90;;;26.70;99.90;;;;;;5049869;28;20372;-72
2023/08/16 11:34:23;;;;;;;1999.90;999.90;;;26.80;99.90;;;;;;5050879;28;20203;-71
2023/08/16 11:36:49;;;;;;;1999.90;999.90;;;26.70;99.90;;;;;;5050754;28;21038;-72
2023/08/16 11:39:15;;;;;;;1999.90;999.90;;;26.40;99.90;;;;;;5050240;28;20404;-70
2023/08/16 11:41:41;;;;;;;1999.90;999.90;;;26.30;99.90;;;;;;5050268;28;20341;-72
2023/08/16 11:44:07;;;;;;;1999.90;999.90;;;25.90;99.90;;;;;;5050356;28;21050;-70
2023/08/16 11:46:47;;;;;;;1999.90;999.90;;;26.10;99.90;;;;;;5050593;28;20199;-71
2023/08/16 11:49:14;;;;;;;1999.90;999.90;;;26.30;99.90;;;;;;5050318;28;20210;-71
2023/08/16 11:51:41;;;;;;;1999.90;999.90;;;26.60;99.90;;;;;;5050756;28;20919;-71
2023/08/16 11:54:08;;;;;;;1999.90;999.90;;;27.00;99.90;;;;;;5050411;28;20500;-73
2023/08/16 11:56:34;;;;;;;1999.90;999.90;;;27.40;99.90;;;;;;5050336;28;20919;-72